sensor_id;sensor_type;location;lat;lon;timestamp;pressure;altitude;pressure_sealevel;temperature;humidity
58385;BME280;44185;47.844;8.966;2022-09-03T00:01:50;95844.66;;;13.19;100.00
58385;BME280;44185;47.844;8.966;2022-09-03T00:04:21;95846.63;;;13.17;100.00
58385;BME280;44185;47.844;8.966;2022-09-03T00:06:57;95844.78;;;13.17;100.00
58385;BME280;44185;47.844;8.966;2022-09-03T00:09:28;95839.34;;;13.27;100.00
58385;BME280;44185;47.844;8.966;2022-09-03T00:12:00;95835.34;;;13.23;100.00
58385;BME280;44185;47.844;8.966;2022-09-03T00:14:32;95840.38;;;13.26;100.00
58385;BME280;44185;47.844;8.966;2022-09-03T00:17:02;95836.88;;;13.26;100.00
58385;BME280;44185;47.844;8.966;2022-09-03T00:19:32;95835.53;;;13.21;100.00
58385;BME280;44185;47.844;8.966;2022-09-03T00:22:02;95836.31;;;13.14;100.00
58385;BME280;44185;47.844;8.966;2022-09-03T00:24:35;95835.09;;;12.99;100.00
58385;BME280;44185;47.844;8.966;2022-09-03T00:27:05;95834.84;;;12.84;100.00
58385;BME280;44185;47.844;8.966;2022-09-03T00:29:36;95841.13;;;12.83;100.00
58385;BME280;44185;47.844;8.966;2022-09-03T00:32:12;95834.19;;;12.90;100.00
58385;BME280;44185;47.844;8.966;2022-09-03T00:34:41;95838.56;;;13.00;100.00
58385;BME280;44185;47.844;8.966;2022-09-03T00:37:08;95842.94;;;13.09;100.00
58385;BME280;44185;47.844;8.966;2022-09-03T00:39:36;95844.91;;;13.07;100.00
58385;BME280;44185;47.844;8.966;2022-09-03T00:42:12;95854.97;;;12.95;100.00
58385;BME280;44185;47.844;8.966;2022-09-03T00:44:52;95858.03;;;12.82;100.00
58385;BME280;44185;47.844;8.966;2022-09-03T00:47:26;95858.75;;;12.93;100.00
58385;BME280;44185;47.844;8.966;2022-09-03T00:50:02;95862.66;;;13.07;100.00
58385;BME280;44185;47.844;8.966;2022-09-03T00:52:39;95859.72;;;13.10;100.00
58385;BME280;44185;47.844;8.966;2022-09-03T00:55:14;95861.38;;;13.11;100.00
58385;BME280;44185;47.844;8.966;2022-09-03T00:57:53;95862.94;;;13.30;100.00
58385;BME280;44185;47.844;8.966;2022-09-03T01:00:23;95857.31;;;13.33;100.00
58385;BME280;44185;47.844;8.966;2022-09-03T01:03:00;95865.13;;;13.27;100.00
58385;BME280;44185;47.844;8.966;2022-09-03T01:05:50;95883.22;;;13.31;100.00
58385;BME280;44185;47.844;8.966;2022-09-03T01:08:38;95882.44;;;13.39;100.00
58385;BME280;44185;47.844;8.966;2022-09-03T01:11:18;95887.94;;;13.46;100.00
58385;BME280;44185;47.844;8.966;2022-09-03T01:13:49;95889.25;;;13.42;100.00
58385;BME280;44185;47.844;8.966;2022-09-03T01:16:26;95893.22;;;13.38;100.00
58385;BME280;44185;47.844;8.966;2022-09-03T01:18:59;95897.19;;;13.33;100.00
58385;BME280;44185;47.844;8.966;2022-09-03T01:21:41;95898.69;;;13.36;100.00
58385;BME280;44185;47.844;8.966;2022-09-03T01:24:29;95895.88;;;13.38;100.00
58385;BME280;44185;47.844;8.966;2022-09-03T01:27:14;95897.22;;;13.42;100.00
58385;BME280;44185;47.844;8.966;2022-09-03T01:29:51;95907.56;;;13.45;100.00
58385;BME280;44185;47.844;8.966;2022-09-03T01:32:24;95891.13;;;13.50;100.00
58385;BME280;44185;47.844;8.966;2022-09-03T01:35:00;95900.28;;;13.55;100.00
58385;BME280;44185;47.844;8.966;2022-09-03T01:37:35;95906.97;;;13.60;100.00
58385;BME280;44185;47.844;8.966;2022-09-03T01:40:08;95906.84;;;13.70;100.00
58385;BME280;44185;47.844;8.966;2022-09-03T01:42:47;95909.84;;;13.75;100.00
58385;BME280;44185;47.844;8.966;2022-09-03T01:45:32;95910.47;;;13.60;100.00
58385;BME280;44185;47.844;8.966;2022-09-03T01:48:09;95900.50;;;13.62;100.00
58385;BME280;44185;47.844;8.966;2022-09-03T01:50:43;95910.47;;;13.60;100.00
58385;BME280;44185;47.844;8.966;2022-09-03T01:53:18;95908.56;;;13.52;100.00
58385;BME280;44185;47.844;8.966;2022-09-03T01:55:59;95906.53;;;13.46;100.00
58385;BME280;44185;47.844;8.966;2022-09-03T01:58:32;95901.66;;;13.33;100.00
58385;BME280;44185;47.844;8.966;2022-09-03T02:01:10;95904.50;;;13.31;100.00
58385;BME280;44185;47.844;8.966;2022-09-03T02:03:41;95896.53;;;13.31;100.00
58385;BME280;44185;47.844;8.966;2022-09-03T02:06:09;95894.69;;;13.32;100.00
58385;BME280;44185;47.844;8.966;2022-09-03T02:08:35;95894.47;;;13.25;100.00
58385;BME280;44185;47.844;8.966;2022-09-03T02:11:00;95896.31;;;13.24;100.00
58385;BME280;44185;47.844;8.966;2022-09-03T02:13:30;95892.31;;;13.20;100.00
58385;BME280;44185;47.844;8.966;2022-09-03T02:16:02;95890.31;;;13.22;100.00
58385;BME280;44185;47.844;8.966;2022-09-03T02:18:35;95892.84;;;13.32;100.00
58385;BME280;44185;47.844;8.966;2022-09-03T02:21:02;95891.25;;;13.40;100.00
58385;BME280;44185;47.844;8.966;2022-09-03T02:23:27;95883.28;;;13.40;100.00
58385;BME280;44185;47.844;8.966;2022-09-03T02:25:56;95877.59;;;13.34;100.00
58385;BME280;44185;47.844;8.966;2022-09-03T02:28:22;95897.53;;;13.39;100.00
58385;BME280;44185;47.844;8.966;2022-09-03T02:30:47;95886.88;;;13.30;100.00
58385;BME280;44185;47.844;8.966;2022-09-03T02:33:15;95899.84;;;13.33;100.00
58385;BME280;44185;47.844;8.966;2022-09-03T02:35:41;95903.53;;;13.41;100.00
58385;BME280;44185;47.844;8.966;2022-09-03T02:38:11;95908.03;;;13.40;100.00
58385;BME280;44185;47.844;8.966;2022-09-03T02:40:37;95909.06;;;13.48;100.00
58385;BME280;44185;47.844;8.966;2022-09-03T02:43:03;95906.22;;;13.49;100.00
58385;BME280;44185;47.844;8.966;2022-09-03T02:45:30;95914.06;;;13.51;100.00
58385;BME280;44185;47.844;8.966;2022-09-03T02:47:58;95914.56;;;13.54;100.00
58385;BME280;44185;47.844;8.966;2022-09-03T02:50:26;95906.44;;;13.56;100.00
58385;BME280;44185;47.844;8.966;2022-09-03T02:52:51;95900.72;;;13.42;100.00
58385;BME280;44185;47.844;8.966;2022-09-03T02:55:17;95896.34;;;13.33;100.00
58385;BME280;44185;47.844;8.966;2022-09-03T02:57:43;95895.72;;;13.39;100.00
58385;BME280;44185;47.844;8.966;2022-09-03T03:00:09;95896.41;;;13.41;100.00
58385;BME280;44185;47.844;8.966;2022-09-03T03:02:34;95893.91;;;13.40;100.00
58385;BME280;44185;47.844;8.966;2022-09-03T03:05:00;95889.16;;;13.25;100.00
58385;BME280;44185;47.844;8.966;2022-09-03T03:07:27;95898.34;;;13.31;100.00
58385;BME280;44185;47.844;8.966;2022-09-03T03:09:52;95896.25;;;13.43;100.00
58385;BME280;44185;47.844;8.966;2022-09-03T03:12:18;95892.75;;;13.42;100.00
58385;BME280;44185;47.844;8.966;2022-09-03T03:14:43;95893.19;;;13.29;100.00
58385;BME280;44185;47.844;8.966;2022-09-03T03:17:09;95907.94;;;13.23;100.00
58385;BME280;44185;47.844;8.966;2022-09-03T03:19:34;95899.84;;;13.07;100.00
58385;BME280;44185;47.844;8.966;2022-09-03T03:22:00;95903.53;;;13.06;100.00
58385;BME280;44185;47.844;8.966;2022-09-03T03:24:27;95901.91;;;13.13;100.00
58385;BME280;44185;47.844;8.966;2022-09-03T03:26:54;95907.56;;;13.18;100.00
58385;BME280;44185;47.844;8.966;2022-09-03T03:29:20;95908.06;;;13.14;100.00
58385;BME280;44185;47.844;8.966;2022-09-03T03:31:45;95913.03;;;13.17;100.00
58385;BME280;44185;47.844;8.966;2022-09-03T03:34:10;95905.09;;;13.25;100.00
58385;BME280;44185;47.844;8.966;2022-09-03T03:36:36;95908.25;;;13.20;100.00
58385;BME280;44185;47.844;8.966;2022-09-03T03:39:02;95916.88;;;13.22;100.00
58385;BME280;44185;47.844;8.966;2022-09-03T03:41:31;95914.09;;;13.24;100.00
58385;BME280;44185;47.844;8.966;2022-09-03T03:43:58;95925.59;;;13.33;100.00
58385;BME280;44185;47.844;8.966;2022-09-03T03:46:28;95933.34;;;13.26;100.00
58385;BME280;44185;47.844;8.966;2022-09-03T03:48:54;95939.75;;;13.42;100.00
58385;BME280;44185;47.844;8.966;2022-09-03T03:51:20;95936.94;;;13.43;100.00
58385;BME280;44185;47.844;8.966;2022-09-03T03:53:45;95946.09;;;13.49;100.00
58385;BME280;44185;47.844;8.966;2022-09-03T03:56:12;95954.56;;;13.44;100.00
58385;BME280;44185;47.844;8.966;2022-09-03T03:58:40;95955.41;;;13.45;100.00
58385;BME280;44185;47.844;8.966;2022-09-03T04:01:07;95956.13;;;13.55;100.00
58385;BME280;44185;47.844;8.966;2022-09-03T04:03:34;95955.91;;;13.49;100.00
58385;BME280;44185;47.844;8.966;2022-09-03T04:06:00;95956.25;;;13.54;100.00
58385;BME280;44185;47.844;8.966;2022-09-03T04:08:25;95959.31;;;13.59;100.00
58385;BME280;44185;47.844;8.966;2022-09-03T04:10:51;95952.75;;;13.45;100.00
58385;BME280;44185;47.844;8.966;2022-09-03T04:13:16;95958.06;;;13.45;100.00
58385;BME280;44185;47.844;8.966;2022-09-03T04:15:44;95955.44;;;13.53;100.00
58385;BME280;44185;47.844;8.966;2022-09-03T04:18:10;95958.88;;;13.45;100.00
58385;BME280;44185;47.844;8.966;2022-09-03T04:20:35;95956.94;;;13.56;100.00
58385;BME280;44185;47.844;8.966;2022-09-03T04:23:01;95956.81;;;13.57;100.00
58385;BME280;44185;47.844;8.966;2022-09-03T04:25:27;95969.16;;;13.67;100.00
58385;BME280;44185;47.844;8.966;2022-09-03T04:27:53;95964.31;;;13.62;100.00
58385;BME280;44185;47.844;8.966;2022-09-03T04:30:19;95960.84;;;13.70;100.00
58385;BME280;44185;47.844;8.966;2022-09-03T04:32:48;95962.72;;;13.78;100.00
58385;BME280;44185;47.844;8.966;2022-09-03T04:35:14;95962.88;;;13.76;100.00
58385;BME280;44185;47.844;8.966;2022-09-03T04:37:39;95966.22;;;13.78;100.00
58385;BME280;44185;47.844;8.966;2022-09-03T04:40:05;95966.38;;;13.77;100.00
58385;BME280;44185;47.844;8.966;2022-09-03T04:42:31;95968.56;;;13.82;100.00
58385;BME280;44185;47.844;8.966;2022-09-03T04:44:56;95971.25;;;13.90;100.00
58385;BME280;44185;47.844;8.966;2022-09-03T04:47:22;95979.56;;;13.87;100.00
58385;BME280;44185;47.844;8.966;2022-09-03T04:49:49;95972.81;;;14.01;100.00
58385;BME280;44185;47.844;8.966;2022-09-03T04:52:14;95979.41;;;13.97;100.00
58385;BME280;44185;47.844;8.966;2022-09-03T04:54:40;95972.31;;;14.06;100.00
58385;BME280;44185;47.844;8.966;2022-09-03T04:57:05;95973.47;;;14.03;100.00
58385;BME280;44185;47.844;8.966;2022-09-03T04:59:31;95971.13;;;14.00;100.00
58385;BME280;44185;47.844;8.966;2022-09-03T05:01:56;95967.97;;;14.05;100.00
58385;BME280;44185;47.844;8.966;2022-09-03T05:04:22;95960.00;;;14.05;100.00
58385;BME280;44185;47.844;8.966;2022-09-03T05:06:49;95964.50;;;14.12;100.00
58385;BME280;44185;47.844;8.966;2022-09-03T05:09:14;95965.03;;;14.16;100.00
58385;BME280;44185;47.844;8.966;2022-09-03T05:11:40;95964.47;;;14.04;100.00
58385;BME280;44185;47.844;8.966;2022-09-03T05:14:05;95974.13;;;14.05;100.00
58385;BME280;44185;47.844;8.966;2022-09-03T05:16:30;95968.50;;;14.08;100.00
58385;BME280;44185;47.844;8.966;2022-09-03T05:18:58;95967.03;;;14.14;100.00
58385;BME280;44185;47.844;8.966;2022-09-03T05:21:24;95969.34;;;14.09;100.00
58385;BME280;44185;47.844;8.966;2022-09-03T05:23:51;95964.81;;;14.09;100.00
58385;BME280;44185;47.844;8.966;2022-09-03T05:26:18;95962.66;;;14.05;100.00
58385;BME280;44185;47.844;8.966;2022-09-03T05:28:45;95964.34;;;14.06;100.00
58385;BME280;44185;47.844;8.966;2022-09-03T05:31:12;95963.50;;;14.05;100.00
58385;BME280;44185;47.844;8.966;2022-09-03T05:33:41;95968.16;;;14.03;100.00
58385;BME280;44185;47.844;8.966;2022-09-03T05:36:08;95960.09;;;13.86;100.00
58385;BME280;44185;47.844;8.966;2022-09-03T05:38:34;95963.59;;;13.87;100.00
58385;BME280;44185;47.844;8.966;2022-09-03T05:41:03;95969.41;;;13.82;100.00
58385;BME280;44185;47.844;8.966;2022-09-03T05:43:30;95964.22;;;13.81;100.00
58385;BME280;44185;47.844;8.966;2022-09-03T05:45:57;95964.56;;;13.86;100.00
58385;BME280;44185;47.844;8.966;2022-09-03T05:48:23;95969.22;;;13.84;100.00
58385;BME280;44185;47.844;8.966;2022-09-03T05:50:48;95971.88;;;13.84;100.00
58385;BME280;44185;47.844;8.966;2022-09-03T05:53:14;95976.56;;;13.90;100.00
58385;BME280;44185;47.844;8.966;2022-09-03T05:55:39;95976.97;;;14.04;100.00
58385;BME280;44185;47.844;8.966;2022-09-03T05:58:06;95978.81;;;14.11;100.00
58385;BME280;44185;47.844;8.966;2022-09-03T06:00:31;95980.69;;;14.19;100.00
58385;BME280;44185;47.844;8.966;2022-09-03T06:02:57;95976.03;;;14.21;100.00
58385;BME280;44185;47.844;8.966;2022-09-03T06:05:22;95976.03;;;14.21;100.00
58385;BME280;44185;47.844;8.966;2022-09-03T06:07:47;95979.66;;;14.20;100.00
58385;BME280;44185;47.844;8.966;2022-09-03T06:10:13;95977.34;;;14.17;100.00
58385;BME280;44185;47.844;8.966;2022-09-03T06:12:39;95973.88;;;14.25;100.00
58385;BME280;44185;47.844;8.966;2022-09-03T06:15:06;95983.00;;;14.31;100.00
58385;BME280;44185;47.844;8.966;2022-09-03T06:17:32;95976.69;;;14.23;100.00
58385;BME280;44185;47.844;8.966;2022-09-03T06:19:57;95968.38;;;14.27;100.00
58385;BME280;44185;47.844;8.966;2022-09-03T06:22:23;95966.41;;;14.37;100.00
58385;BME280;44185;47.844;8.966;2022-09-03T06:24:48;95976.38;;;14.35;100.00
58385;BME280;44185;47.844;8.966;2022-09-03T06:27:14;95970.06;;;14.28;100.00
58385;BME280;44185;47.844;8.966;2022-09-03T06:29:39;95969.72;;;14.22;100.00
58385;BME280;44185;47.844;8.966;2022-09-03T06:32:06;95969.03;;;14.20;100.00
58385;BME280;44185;47.844;8.966;2022-09-03T06:34:32;95968.56;;;14.25;100.00
58385;BME280;44185;47.844;8.966;2022-09-03T06:36:57;95964.56;;;14.29;100.00
58385;BME280;44185;47.844;8.966;2022-09-03T06:39:23;95967.56;;;14.34;100.00
58385;BME280;44185;47.844;8.966;2022-09-03T06:41:48;95957.59;;;14.37;100.00
58385;BME280;44185;47.844;8.966;2022-09-03T06:44:13;95954.91;;;14.37;100.00
58385;BME280;44185;47.844;8.966;2022-09-03T06:46:40;95949.28;;;14.40;100.00
58385;BME280;44185;47.844;8.966;2022-09-03T06:49:07;95947.13;;;14.43;100.00
58385;BME280;44185;47.844;8.966;2022-09-03T06:51:32;95943.97;;;14.48;100.00
58385;BME280;44185;47.844;8.966;2022-09-03T06:53:59;95943.13;;;14.48;100.00
58385;BME280;44185;47.844;8.966;2022-09-03T06:56:25;95934.50;;;14.54;100.00
58385;BME280;44185;47.844;8.966;2022-09-03T06:58:52;95938.66;;;14.56;100.00
58385;BME280;44185;47.844;8.966;2022-09-03T07:01:19;95932.63;;;14.54;100.00
58385;BME280;44185;47.844;8.966;2022-09-03T07:03:46;95936.34;;;14.62;100.00
58385;BME280;44185;47.844;8.966;2022-09-03T07:06:14;95938.00;;;14.71;100.00
58385;BME280;44185;47.844;8.966;2022-09-03T07:08:40;95938.66;;;14.73;100.00
58385;BME280;44185;47.844;8.966;2022-09-03T07:11:08;95935.50;;;14.78;100.00
58385;BME280;44185;47.844;8.966;2022-09-03T07:13:34;95939.19;;;14.94;100.00
58385;BME280;44185;47.844;8.966;2022-09-03T07:16:00;95938.19;;;15.03;100.00
58385;BME280;44185;47.844;8.966;2022-09-03T07:18:26;95941.34;;;14.98;100.00
58385;BME280;44185;47.844;8.966;2022-09-03T07:20:57;95936.53;;;15.02;100.00
58385;BME280;44185;47.844;8.966;2022-09-03T07:23:23;95942.34;;;14.97;100.00
58385;BME280;44185;47.844;8.966;2022-09-03T07:25:52;95931.84;;;15.04;100.00
58385;BME280;44185;47.844;8.966;2022-09-03T07:28:17;95918.69;;;15.11;100.00
58385;BME280;44185;47.844;8.966;2022-09-03T07:30:43;95928.34;;;15.20;100.00
58385;BME280;44185;47.844;8.966;2022-09-03T07:33:08;95928.81;;;15.16;100.00
58385;BME280;44185;47.844;8.966;2022-09-03T07:35:35;95921.34;;;15.19;100.00
58385;BME280;44185;47.844;8.966;2022-09-03T07:38:00;95926.81;;;15.26;100.00
58385;BME280;44185;47.844;8.966;2022-09-03T07:40:28;95928.13;;;15.47;100.00
58385;BME280;44185;47.844;8.966;2022-09-03T07:42:55;95935.63;;;15.43;100.00
58385;BME280;44185;47.844;8.966;2022-09-03T07:45:21;95925.09;;;15.50;100.00
58385;BME280;44185;47.844;8.966;2022-09-03T07:47:47;95932.22;;;15.58;100.00
58385;BME280;44185;47.844;8.966;2022-09-03T07:50:12;95933.25;;;15.57;100.00
58385;BME280;44185;47.844;8.966;2022-09-03T07:52:38;95926.47;;;15.86;100.00
58385;BME280;44185;47.844;8.966;2022-09-03T07:55:04;95929.19;;;16.18;100.00
58385;BME280;44185;47.844;8.966;2022-09-03T07:57:31;95928.59;;;16.78;100.00
58385;BME280;44185;47.844;8.966;2022-09-03T07:59:57;95934.19;;;16.68;100.00
58385;BME280;44185;47.844;8.966;2022-09-03T08:02:22;95948.16;;;17.18;100.00
58385;BME280;44185;47.844;8.966;2022-09-03T08:04:47;95946.66;;;17.15;100.00
58385;BME280;44185;47.844;8.966;2022-09-03T08:07:13;95943.34;;;17.13;99.90
58385;BME280;44185;47.844;8.966;2022-09-03T08:09:38;95942.03;;;17.48;100.00
58385;BME280;44185;47.844;8.966;2022-09-03T08:12:04;95933.16;;;17.47;99.49
58385;BME280;44185;47.844;8.966;2022-09-03T08:14:31;95942.97;;;17.70;98.23
58385;BME280;44185;47.844;8.966;2022-09-03T08:16:56;95942.69;;;17.80;100.00
58385;BME280;44185;47.844;8.966;2022-09-03T08:19:22;95949.84;;;18.10;98.15
58385;BME280;44185;47.844;8.966;2022-09-03T08:21:47;95948.06;;;18.17;92.69
58385;BME280;44185;47.844;8.966;2022-09-03T08:24:15;95947.44;;;18.00;93.13
58385;BME280;44185;47.844;8.966;2022-09-03T08:26:41;95943.94;;;17.99;91.23
58385;BME280;44185;47.844;8.966;2022-09-03T08:29:07;95945.19;;;17.66;90.66
58385;BME280;44185;47.844;8.966;2022-09-03T08:31:34;95956.97;;;17.87;94.45
58385;BME280;44185;47.844;8.966;2022-09-03T08:34:01;95963.97;;;17.73;89.25
58385;BME280;44185;47.844;8.966;2022-09-03T08:36:28;95968.59;;;17.49;90.06
58385;BME280;44185;47.844;8.966;2022-09-03T08:38:55;95966.31;;;17.61;89.05
58385;BME280;44185;47.844;8.966;2022-09-03T08:41:26;95954.94;;;17.74;91.76
58385;BME280;44185;47.844;8.966;2022-09-03T08:44:05;95961.50;;;17.56;88.53
58385;BME280;44185;47.844;8.966;2022-09-03T08:46:42;95962.59;;;17.32;88.02
58385;BME280;44185;47.844;8.966;2022-09-03T08:49:14;95964.69;;;17.37;90.54
58385;BME280;44185;47.844;8.966;2022-09-03T08:51:43;95962.72;;;17.54;89.92
58385;BME280;44185;47.844;8.966;2022-09-03T08:54:11;95962.78;;;17.76;89.13
58385;BME280;44185;47.844;8.966;2022-09-03T08:56:38;95966.28;;;18.07;89.19
58385;BME280;44185;47.844;8.966;2022-09-03T08:59:05;95982.69;;;18.34;89.57
58385;BME280;44185;47.844;8.966;2022-09-03T09:01:39;95986.72;;;18.60;88.13
58385;BME280;44185;47.844;8.966;2022-09-03T09:04:13;95982.66;;;18.71;86.96
58385;BME280;44185;47.844;8.966;2022-09-03T09:06:45;95983.13;;;18.75;86.08
58385;BME280;44185;47.844;8.966;2022-09-03T09:09:21;95978.72;;;18.67;87.27
58385;BME280;44185;47.844;8.966;2022-09-03T09:11:57;95982.00;;;18.84;87.06
58385;BME280;44185;47.844;8.966;2022-09-03T09:14:30;95978.66;;;19.04;85.61
58385;BME280;44185;47.844;8.966;2022-09-03T09:17:07;95977.06;;;19.10;83.63
58385;BME280;44185;47.844;8.966;2022-09-03T09:19:46;95981.72;;;19.01;83.56
58385;BME280;44185;47.844;8.966;2022-09-03T09:22:22;95980.81;;;19.16;84.67
58385;BME280;44185;47.844;8.966;2022-09-03T09:24:52;95972.47;;;19.26;83.48
58385;BME280;44185;47.844;8.966;2022-09-03T09:27:19;95973.94;;;19.06;83.91
58385;BME280;44185;47.844;8.966;2022-09-03T09:29:47;95969.41;;;18.85;82.60
58385;BME280;44185;47.844;8.966;2022-09-03T09:32:16;95971.25;;;19.28;84.63
58385;BME280;44185;47.844;8.966;2022-09-03T09:34:43;95968.84;;;19.40;82.68
58385;BME280;44185;47.844;8.966;2022-09-03T09:37:10;95971.94;;;19.37;82.46
58385;BME280;44185;47.844;8.966;2022-09-03T09:39:36;95960.47;;;19.50;82.39
58385;BME280;44185;47.844;8.966;2022-09-03T09:42:05;95968.31;;;19.23;81.05
58385;BME280;44185;47.844;8.966;2022-09-03T09:44:31;95960.16;;;19.38;79.83
58385;BME280;44185;47.844;8.966;2022-09-03T09:47:03;95961.69;;;19.48;85.25
58385;BME280;44185;47.844;8.966;2022-09-03T09:49:32;95964.25;;;19.56;83.21
58385;BME280;44185;47.844;8.966;2022-09-03T09:52:03;95969.63;;;19.63;82.48
58385;BME280;44185;47.844;8.966;2022-09-03T09:54:29;95978.44;;;19.50;80.35
58385;BME280;44185;47.844;8.966;2022-09-03T09:56:58;95985.63;;;19.49;81.24
58385;BME280;44185;47.844;8.966;2022-09-03T09:59:23;95981.75;;;19.52;82.59
58385;BME280;44185;47.844;8.966;2022-09-03T10:01:49;95977.34;;;19.44;79.60
58385;BME280;44185;47.844;8.966;2022-09-03T10:04:22;95993.19;;;19.67;82.63
58385;BME280;44185;47.844;8.966;2022-09-03T10:06:54;96010.25;;;19.88;80.17
58385;BME280;44185;47.844;8.966;2022-09-03T10:09:22;96025.03;;;19.77;83.19
58385;BME280;44185;47.844;8.966;2022-09-03T10:11:50;96041.75;;;19.44;82.32
58385;BME280;44185;47.844;8.966;2022-09-03T10:14:24;96043.09;;;19.33;82.33
58385;BME280;44185;47.844;8.966;2022-09-03T10:16:57;96043.91;;;19.11;81.19
58385;BME280;44185;47.844;8.966;2022-09-03T10:19:30;96055.81;;;18.65;87.62
58385;BME280;44185;47.844;8.966;2022-09-03T10:22:06;96063.13;;;18.10;96.84
58385;BME280;44185;47.844;8.966;2022-09-03T10:24:47;96069.25;;;17.65;89.61
58385;BME280;44185;47.844;8.966;2022-09-03T10:27:17;96078.50;;;17.16;86.72
58385;BME280;44185;47.844;8.966;2022-09-03T10:29:44;96091.19;;;16.90;90.26
58385;BME280;44185;47.844;8.966;2022-09-03T10:32:24;96095.00;;;16.64;94.47
58385;BME280;44185;47.844;8.966;2022-09-03T10:34:57;96096.38;;;16.51;95.43
58385;BME280;44185;47.844;8.966;2022-09-03T10:37:35;96092.63;;;16.37;96.82
58385;BME280;44185;47.844;8.966;2022-09-03T10:40:17;96087.94;;;16.39;99.02
58385;BME280;44185;47.844;8.966;2022-09-03T10:42:47;96098.59;;;16.48;98.65
58385;BME280;44185;47.844;8.966;2022-09-03T10:45:18;96095.69;;;16.58;100.00
58385;BME280;44185;47.844;8.966;2022-09-03T10:48:02;96088.78;;;16.72;100.00
58385;BME280;44185;47.844;8.966;2022-09-03T10:50:33;96085.91;;;16.82;100.00
58385;BME280;44185;47.844;8.966;2022-09-03T10:53:12;96086.47;;;17.00;100.00
58385;BME280;44185;47.844;8.966;2022-09-03T10:55:47;96081.16;;;17.16;99.40
58385;BME280;44185;47.844;8.966;2022-09-03T10:58:28;96072.84;;;17.10;97.04
58385;BME280;44185;47.844;8.966;2022-09-03T11:01:03;96059.34;;;17.36;98.65
58385;BME280;44185;47.844;8.966;2022-09-03T11:03:42;96042.28;;;17.52;97.93
58385;BME280;44185;47.844;8.966;2022-09-03T11:06:14;96041.75;;;17.56;98.41
58385;BME280;44185;47.844;8.966;2022-09-03T11:08:47;96041.69;;;17.65;99.18
58385;BME280;44185;47.844;8.966;2022-09-03T11:11:16;96040.03;;;17.79;99.46
58385;BME280;44185;47.844;8.966;2022-09-03T11:13:46;96033.88;;;17.94;96.81
58385;BME280;44185;47.844;8.966;2022-09-03T11:16:16;96023.63;;;18.12;97.50
58385;BME280;44185;47.844;8.966;2022-09-03T11:18:48;96012.38;;;18.02;95.39
58385;BME280;44185;47.844;8.966;2022-09-03T11:21:15;95997.94;;;18.03;96.99
58385;BME280;44185;47.844;8.966;2022-09-03T11:23:48;96001.28;;;18.20;93.83
58385;BME280;44185;47.844;8.966;2022-09-03T11:26:18;95996.91;;;18.34;93.00
58385;BME280;44185;47.844;8.966;2022-09-03T11:28:51;95999.84;;;18.40;92.74
58385;BME280;44185;47.844;8.966;2022-09-03T11:31:25;96008.63;;;18.49;95.57
58385;BME280;44185;47.844;8.966;2022-09-03T11:34:00;96013.81;;;18.35;89.93
58385;BME280;44185;47.844;8.966;2022-09-03T11:36:31;96010.56;;;18.40;94.26
58385;BME280;44185;47.844;8.966;2022-09-03T11:38:58;96007.16;;;18.46;91.40
58385;BME280;44185;47.844;8.966;2022-09-03T11:41:26;96018.41;;;18.56;93.86
58385;BME280;44185;47.844;8.966;2022-09-03T11:43:52;96014.75;;;18.27;93.75
58385;BME280;44185;47.844;8.966;2022-09-03T11:46:28;96014.38;;;18.30;92.14
58385;BME280;44185;47.844;8.966;2022-09-03T11:48:55;96018.34;;;18.50;88.49
58385;BME280;44185;47.844;8.966;2022-09-03T11:51:30;96028.59;;;18.46;88.00
58385;BME280;44185;47.844;8.966;2022-09-03T11:53:59;96028.88;;;18.21;87.48
58385;BME280;44185;47.844;8.966;2022-09-03T11:56:25;96027.22;;;18.05;87.36
58385;BME280;44185;47.844;8.966;2022-09-03T11:59:04;96009.84;;;18.16;89.24
58385;BME280;44185;47.844;8.966;2022-09-03T12:01:32;96005.88;;;18.42;85.88
58385;BME280;44185;47.844;8.966;2022-09-03T12:04:00;96006.09;;;18.62;86.38
58385;BME280;44185;47.844;8.966;2022-09-03T12:06:41;96012.56;;;18.53;85.92
58385;BME280;44185;47.844;8.966;2022-09-03T12:09:28;96011.81;;;18.07;83.58
58385;BME280;44185;47.844;8.966;2022-09-03T12:12:07;96011.31;;;18.18;84.11
58385;BME280;44185;47.844;8.966;2022-09-03T12:14:44;96002.00;;;18.29;86.27
58385;BME280;44185;47.844;8.966;2022-09-03T12:17:23;96008.41;;;18.28;86.29
58385;BME280;44185;47.844;8.966;2022-09-03T12:19:54;96005.31;;;18.47;84.72
58385;BME280;44185;47.844;8.966;2022-09-03T12:22:22;96011.72;;;18.67;87.76
58385;BME280;44185;47.844;8.966;2022-09-03T12:24:50;96004.72;;;18.51;88.84
58385;BME280;44185;47.844;8.966;2022-09-03T12:27:18;96009.88;;;18.68;85.48
58385;BME280;44185;47.844;8.966;2022-09-03T12:29:55;96013.34;;;18.68;85.68
58385;BME280;44185;47.844;8.966;2022-09-03T12:32:22;96013.06;;;18.78;85.84
58385;BME280;44185;47.844;8.966;2022-09-03T12:34:47;96015.22;;;18.90;88.46
58385;BME280;44185;47.844;8.966;2022-09-03T12:37:18;96014.81;;;18.86;85.87
58385;BME280;44185;47.844;8.966;2022-09-03T12:39:50;96016.66;;;19.08;88.79
58385;BME280;44185;47.844;8.966;2022-09-03T12:42:20;96015.69;;;19.38;87.84
58385;BME280;44185;47.844;8.966;2022-09-03T12:44:47;96016.28;;;19.62;87.93
58385;BME280;44185;47.844;8.966;2022-09-03T12:47:14;96010.66;;;19.56;84.32
58385;BME280;44185;47.844;8.966;2022-09-03T12:49:41;96012.38;;;19.64;83.74
58385;BME280;44185;47.844;8.966;2022-09-03T12:52:15;96021.97;;;19.81;82.07
58385;BME280;44185;47.844;8.966;2022-09-03T12:54:47;96023.03;;;19.86;81.06
58385;BME280;44185;47.844;8.966;2022-09-03T12:57:20;96017.31;;;19.96;80.95
58385;BME280;44185;47.844;8.966;2022-09-03T12:59:47;96021.56;;;19.77;81.21
58385;BME280;44185;47.844;8.966;2022-09-03T13:02:17;96019.44;;;19.72;79.97
58385;BME280;44185;47.844;8.966;2022-09-03T13:04:45;96016.25;;;19.90;81.62